Southeast Texas Regional Airport
KBPT : now visible

Airfield :











YOU CAN JOIN US ON...

 
LOGIN :

Register | Disclaimer

   EN    FR    IT 

 









Legend :    VFR   Marginal VFR   IFR   Intensive IFR   Very Intensive IFR
Visi :
Ceiling :
>= 8 km
>= 3000ft
5 to 8 km
1000 to 3000 ft
1500m to 5 km
500 to 1000 ft
800 to 1500m
200 to 500 ft
< 800m
< 200 ft
Symbols :   Thunderstorms  Fog  Heavy snow  Heavy precipitations  Wind > 20 kt






- Airport Elevation : 15 ft
- IATA code : BPT


KBPT - Southeast Texas Regional

CURRENT METAR :
  • 282310Z 11008KT 10SM SCT011 OVC055 15/13 A2984 RMK AO2 RAE2254 P0000 T01500133

EXPIRED METARs :
  • 282237Z 10010KT 10SM BKN011 OVC060 15/13 A2984 RMK AO2 RAB27E36 P0000 T01500133
  • 282153Z 11015KT 10SM BKN060 BKN075 16/13 A2982 RMK AO2 LTG DSNT S RAB16E33 SLP099 P0001 T01560133
  • 282053Z 10012KT 10SM SCT015 OVC075 16/13 A2985 RMK AO2 RAE21 SLP107 P0001 60001 T01560133 58016

TAF KBPT
Valid from the 28 at 19:00 until the 29 at 18:00 UTC


281917Z 2819/2918 12014G21KT P6SM VCSH SCT025 OVC110
TEMPO 2819/2823 5SM -SHRA OVC025
FM282300 13013KT P6SM VCSH OVC015
FM290400 VRB06KT 5SM -SHRA OVC007
FM290800 28010KT P6SM OVC015



MET'MAP, your aeronautical weather chart ! - Copyright ORBIFLY December 2007 - Disclaimer

ORBIFLY MET'MAP TEAM :

Programming & Development : Alexandra Zaïnal
Concept & original design : Baudouin d'Aumeries
Assistance for programming : Marc-Olivier Méhu
Technical & hardware support : Manuel Goepfert

Contact : metmap@orbifly.com




SOURCES & CREDITS :

   NOAA       Earth
Advisory